Startpagina
METAR-TAF:

METAR-TAF

Vliegvelden :

Nancy, Frankrijk

breedte: 48-41N, lengte: 006-13E, hoogte: 225 m

Actueel weer

Dit bericht is 22 minuten geleden gemaakt, om 16:30 UTC
Wind 3 kt uit variabele richting
Temperatuur 3°C
Vochtigheid 81%
Druk 1008 hPa
Zicht 10 km of meer

METAR: LFSN 261630Z AUTO VRB03KT 9999 ///TCU 03/00 Q1008

Tijdstip: 17:52 (16:52 UTC)


TAF: ontbreekt

Waarnemingen en weersverwachtingen van meer dan 4000 vliegvelden (METAR en TAF).

De beschikbare stations zijn de gele en rode punten op de kaart.

Ga met uw muis naar het station om de naam te zien.

Klik dan om waarnemingen en weersverwachtingen te zien.

kaart wijzigen: klik op de groene knoppen met een zwart kruis om in te zoomen, op de groene knop met een streepje om uit te zoomen of op de groene pijlen voor aangrenzende kaarten.


METAR-TAF: